createdAt,value
2022-11-15T00:01:20.645Z,13.57
2022-11-15T00:03:50.756Z,13.73
2022-11-15T00:06:19.352Z,13.40
2022-11-15T00:08:47.843Z,12.77
2022-11-15T00:11:17.727Z,12.98
2022-11-15T00:13:46.180Z,13.55
2022-11-15T00:16:14.618Z,13.75
2022-11-15T00:18:47.781Z,13.73
2022-11-15T00:21:19.362Z,13.45
2022-11-15T00:23:47.755Z,13.68
2022-11-15T00:26:17.650Z,14.15
2022-11-15T00:28:46.177Z,12.75
2022-11-15T00:31:15.830Z,13.55
2022-11-15T00:33:46.386Z,12.70
2022-11-15T00:36:14.839Z,12.85
2022-11-15T00:38:43.302Z,14.32
2022-11-15T00:41:13.967Z,13.25
2022-11-15T00:43:44.672Z,13.82
2022-11-15T00:46:13.351Z,13.05
2022-11-15T00:48:41.784Z,12.90
2022-11-15T00:51:10.489Z,13.70
2022-11-15T00:53:38.889Z,13.35
2022-11-15T00:56:07.857Z,12.48
2022-11-15T00:58:36.397Z,12.75
2022-11-15T01:01:10.797Z,12.82
2022-11-15T01:03:40.021Z,13.07
2022-11-15T01:06:09.095Z,12.27
2022-11-15T01:08:37.972Z,12.60
2022-11-15T01:11:08.540Z,12.35
2022-11-15T01:13:37.348Z,13.15
2022-11-15T01:16:11.115Z,12.40
2022-11-15T01:18:39.631Z,12.82
2022-11-15T01:21:10.100Z,13.07
2022-11-15T01:23:38.910Z,11.30
2022-11-15T01:26:09.262Z,12.30
2022-11-15T01:28:39.477Z,12.13
2022-11-15T01:31:13.582Z,11.98
2022-11-15T01:33:42.054Z,12.10
2022-11-15T01:36:13.312Z,12.27
2022-11-15T01:38:41.803Z,12.23
2022-11-15T01:41:18.378Z,12.07
2022-11-15T01:43:48.288Z,11.48
2022-11-15T01:46:29.513Z,11.27
2022-11-15T01:48:59.985Z,12.52
2022-11-15T01:51:29.082Z,11.38
2022-11-15T01:53:59.000Z,11.30
2022-11-15T01:56:30.111Z,11.70
2022-11-15T01:58:59.452Z,11.35
2022-11-15T02:01:29.517Z,10.70
2022-11-15T02:04:01.004Z,11.70
2022-11-15T02:06:29.485Z,11.52
2022-11-15T02:08:58.174Z,11.10
2022-11-15T02:11:26.683Z,12.10
2022-11-15T02:13:55.249Z,11.88
2022-11-15T02:16:30.373Z,11.65
2022-11-15T02:19:04.053Z,10.80
2022-11-15T02:21:35.739Z,11.50
2022-11-15T02:24:48.754Z,11.57
2022-11-15T02:27:48.086Z,10.90
2022-11-15T02:30:30.055Z,11.73
2022-11-15T02:33:01.056Z,11.50
2022-11-15T02:35:36.655Z,11.18
2022-11-15T02:38:09.683Z,11.52
2022-11-15T02:40:43.179Z,11.05
2022-11-15T02:43:30.994Z,11.18
2022-11-15T02:46:04.560Z,11.10
2022-11-15T02:48:33.517Z,11.30
2022-11-15T02:51:02.361Z,11.35
2022-11-15T02:53:31.165Z,11.63
2022-11-15T02:55:59.913Z,11.27
2022-11-15T02:58:59.676Z,11.10
2022-11-15T03:01:40.812Z,11.25
2022-11-15T03:04:18.837Z,10.95
2022-11-15T03:06:50.971Z,11.77
2022-11-15T03:09:25.927Z,10.52
2022-11-15T03:11:58.609Z,10.93
2022-11-15T03:14:30.981Z,10.73
2022-11-15T03:17:04.395Z,11.43
2022-11-15T03:19:36.564Z,10.45
2022-11-15T03:22:06.861Z,10.65
2022-11-15T03:24:36.926Z,10.05
2022-11-15T03:27:05.626Z,10.70
2022-11-15T03:29:35.480Z,10.52
2022-11-15T03:32:07.669Z,10.93
2022-11-15T03:34:40.257Z,10.77
2022-11-15T03:37:08.708Z,9.98
2022-11-15T03:39:37.255Z,10.90
2022-11-15T03:42:13.460Z,10.23
2022-11-15T03:44:45.371Z,10.80
2022-11-15T03:47:18.663Z,10.25
2022-11-15T03:49:48.836Z,10.50
2022-11-15T03:52:19.714Z,10.85
2022-11-15T03:54:52.681Z,10.20
2022-11-15T03:57:21.102Z,9.77
2022-11-15T03:59:49.493Z,10.55
2022-11-15T04:02:19.320Z,10.05
2022-11-15T04:04:47.755Z,10.38
2022-11-15T04:07:16.295Z,10.32
2022-11-15T04:09:58.893Z,10.02
2022-11-15T04:12:32.633Z,10.25
2022-11-15T04:15:11.948Z,10.40
2022-11-15T04:17:43.561Z,10.00
2022-11-15T04:20:32.830Z,9.80
2022-11-15T04:23:19.693Z,10.55
2022-11-15T04:25:48.159Z,9.63
2022-11-15T04:28:16.706Z,10.45
2022-11-15T04:30:45.136Z,10.43
2022-11-15T04:33:15.274Z,9.93
2022-11-15T04:35:44.314Z,10.35
2022-11-15T04:38:13.845Z,9.88
2022-11-15T04:40:42.464Z,10.60
2022-11-15T04:43:11.013Z,10.05
2022-11-15T04:45:39.511Z,9.85
2022-11-15T04:48:08.222Z,10.68
2022-11-15T04:50:38.009Z,10.40
2022-11-15T04:53:07.139Z,9.95
2022-11-15T04:55:35.707Z,10.32
2022-11-15T04:58:04.472Z,9.77
2022-11-15T05:00:33.149Z,10.40
2022-11-15T05:03:19.124Z,10.27
2022-11-15T05:05:49.087Z,9.48
2022-11-15T05:08:17.580Z,9.98
2022-11-15T05:10:46.111Z,9.27
2022-11-15T05:13:14.612Z,10.10
2022-11-15T05:15:43.073Z,10.05
2022-11-15T05:18:11.649Z,9.68
2022-11-15T05:20:40.140Z,10.23
2022-11-15T05:23:10.132Z,9.93
2022-11-15T05:25:38.863Z,9.50
2022-11-15T05:28:07.439Z,10.45
2022-11-15T05:30:35.923Z,10.27
2022-11-15T05:33:04.735Z,10.10
2022-11-15T05:35:36.792Z,10.20
2022-11-15T05:38:05.482Z,10.10
2022-11-15T05:40:35.421Z,9.65
2022-11-15T05:43:04.046Z,10.02
2022-11-15T05:45:33.125Z,9.40
2022-11-15T05:48:01.679Z,9.95
2022-11-15T05:50:30.190Z,9.80
2022-11-15T05:53:02.297Z,10.60
2022-11-15T05:55:34.935Z,10.13
2022-11-15T05:58:03.513Z,10.43
2022-11-15T06:00:32.113Z,9.93
2022-11-15T06:03:00.627Z,9.45
2022-11-15T06:05:29.208Z,9.52
2022-11-15T06:08:00.813Z,10.13
2022-11-15T06:10:29.492Z,8.80
2022-11-15T06:13:02.340Z,9.77
2022-11-15T06:15:30.937Z,9.10
2022-11-15T06:17:59.615Z,10.18
2022-11-15T06:20:28.609Z,9.95
2022-11-15T06:23:00.136Z,9.27
2022-11-15T06:25:29.227Z,9.63
2022-11-15T06:27:59.090Z,9.60
2022-11-15T06:30:29.188Z,9.68
2022-11-15T06:33:04.471Z,9.50
2022-11-15T06:35:34.758Z,9.30
2022-11-15T06:38:05.489Z,10.30
2022-11-15T06:40:36.851Z,10.35
2022-11-15T06:43:05.549Z,9.68
2022-11-15T06:45:35.732Z,10.85
2022-11-15T06:48:04.659Z,9.77
2022-11-15T06:50:33.223Z,10.32
2022-11-15T06:53:04.372Z,9.82
2022-11-15T06:55:32.885Z,10.35
2022-11-15T06:58:01.718Z,10.10
2022-11-15T07:00:30.217Z,10.45
2022-11-15T07:03:01.856Z,9.70
2022-11-15T07:05:31.539Z,10.13
2022-11-15T07:08:00.521Z,10.52
2022-11-15T07:10:29.806Z,11.00
2022-11-15T07:12:58.495Z,11.27
2022-11-15T07:15:27.893Z,11.10
2022-11-15T07:17:56.412Z,11.95
2022-11-15T07:20:26.228Z,11.32
2022-11-15T07:23:01.867Z,11.35
2022-11-15T07:25:30.331Z,12.50
2022-11-15T07:27:59.066Z,12.25
2022-11-15T07:30:28.010Z,11.25
2022-11-15T07:32:56.936Z,11.20
2022-11-15T07:35:27.310Z,11.02
2022-11-15T07:37:57.472Z,10.48
2022-11-15T07:40:26.206Z,10.63
2022-11-15T07:42:54.665Z,11.55
2022-11-15T07:45:23.480Z,10.88
2022-11-15T07:47:52.086Z,10.88
2022-11-15T07:50:20.769Z,11.13
2022-11-15T07:52:57.545Z,11.75
2022-11-15T07:55:26.246Z,10.88
2022-11-15T07:57:54.870Z,10.88
2022-11-15T08:00:23.679Z,10.82
2022-11-15T08:02:52.218Z,11.40
2022-11-15T08:05:20.829Z,10.80
2022-11-15T08:07:52.736Z,10.55
2022-11-15T08:10:21.776Z,11.25
2022-11-15T08:12:50.486Z,10.35
2022-11-15T08:15:19.118Z,10.57
2022-11-15T08:17:47.676Z,11.05
2022-11-15T08:20:16.969Z,10.85
2022-11-15T08:22:45.485Z,10.68
2022-11-15T08:25:15.470Z,11.10
2022-11-15T08:27:44.987Z,11.00
2022-11-15T08:30:14.681Z,10.85
2022-11-15T08:32:43.254Z,11.07
2022-11-15T08:35:11.766Z,11.70
2022-11-15T08:37:40.348Z,10.82
2022-11-15T08:40:10.645Z,11.07
2022-11-15T08:42:40.509Z,11.30
2022-11-15T08:45:10.511Z,10.52
2022-11-15T08:47:39.039Z,10.68
2022-11-15T08:50:08.952Z,11.05
2022-11-15T08:52:37.451Z,11.23
2022-11-15T08:55:07.318Z,10.93
2022-11-15T08:57:35.845Z,11.30
2022-11-15T09:00:07.042Z,11.23
2022-11-15T09:02:35.519Z,12.40
2022-11-15T09:05:04.095Z,11.02
2022-11-15T09:07:32.964Z,10.93
2022-11-15T09:10:01.822Z,10.70
2022-11-15T09:12:31.298Z,10.65
2022-11-15T09:15:00.041Z,11.05
2022-11-15T09:17:32.944Z,12.43
2022-11-15T09:20:01.881Z,12.57
2022-11-15T09:22:31.179Z,14.98
2022-11-15T09:24:59.943Z,15.30
2022-11-15T09:27:30.084Z,14.48
2022-11-15T09:29:58.681Z,15.38
2022-11-15T09:32:37.815Z,16.83
2022-11-15T09:35:08.523Z,17.40
2022-11-15T09:37:39.862Z,16.00
2022-11-15T09:40:11.464Z,17.98
2022-11-15T09:43:00.117Z,16.13
2022-11-15T09:45:32.996Z,18.40
2022-11-15T09:48:30.599Z,15.23
2022-11-15T09:51:02.285Z,15.75
2022-11-15T09:54:13.562Z,15.77
2022-11-15T09:56:25.164Z,21.42
2022-11-15T09:59:00.040Z,20.20
2022-11-15T10:01:39.015Z,19.92
2022-11-15T10:04:11.819Z,26.30
2022-11-15T10:06:43.925Z,28.13
2022-11-15T10:09:22.524Z,22.15
2022-11-15T10:11:52.501Z,29.70
2022-11-15T10:14:22.457Z,25.85
2022-11-15T10:17:34.198Z,26.92
2022-11-15T10:20:13.298Z,21.40
2022-11-15T10:22:43.385Z,19.65
2022-11-15T10:25:23.746Z,20.05
2022-11-15T10:27:58.327Z,28.67
2022-11-15T10:30:35.864Z,23.95
2022-11-15T10:33:27.364Z,23.55
2022-11-15T10:36:19.273Z,27.00
2022-11-15T10:38:59.956Z,31.20
2022-11-15T10:41:35.783Z,29.67
2022-11-15T10:44:28.695Z,28.88
2022-11-15T10:47:23.850Z,25.45
2022-11-15T10:50:28.903Z,25.85
2022-11-15T10:52:58.883Z,25.23
2022-11-15T10:55:29.701Z,23.58
2022-11-15T10:58:06.355Z,23.92
2022-11-15T11:00:37.183Z,23.63
2022-11-15T11:03:08.203Z,23.63
2022-11-15T11:05:42.381Z,23.63
2022-11-15T11:08:25.023Z,22.80
2022-11-15T11:11:02.149Z,22.42
2022-11-15T11:13:33.826Z,22.42
2022-11-15T11:16:36.316Z,20.42
2022-11-15T11:19:18.763Z,21.10
2022-11-15T11:21:57.768Z,23.05
2022-11-15T11:24:33.066Z,21.05
2022-11-15T11:27:14.454Z,21.35
2022-11-15T11:30:08.811Z,22.80
2022-11-15T11:32:54.850Z,25.67
2022-11-15T11:35:28.407Z,42.63
2022-11-15T11:38:02.943Z,29.20
2022-11-15T11:40:39.345Z,23.27
2022-11-15T11:43:14.656Z,24.27
2022-11-15T11:46:03.861Z,22.85
2022-11-15T11:48:43.447Z,21.92
2022-11-15T11:51:18.748Z,21.67
2022-11-15T11:53:53.090Z,21.20
2022-11-15T11:56:27.639Z,21.95
2022-11-15T11:58:57.672Z,23.48
2022-11-15T12:01:30.920Z,22.00
2022-11-15T12:04:01.992Z,21.95
2022-11-15T12:06:34.352Z,21.75
2022-11-15T12:09:06.298Z,21.38
2022-11-15T12:11:41.123Z,20.63
2022-11-15T12:14:15.172Z,20.13
2022-11-15T12:16:44.263Z,19.63
2022-11-15T12:19:14.348Z,20.38
2022-11-15T12:21:47.156Z,19.58
2022-11-15T12:24:18.908Z,19.27
2022-11-15T12:26:53.165Z,19.60
2022-11-15T12:29:29.063Z,18.70
2022-11-15T12:32:01.044Z,18.50
2022-11-15T12:34:45.996Z,18.70
2022-11-15T12:37:56.198Z,18.13
2022-11-15T12:40:30.993Z,17.48
2022-11-15T12:43:31.621Z,17.75
2022-11-15T12:46:07.427Z,18.85
2022-11-15T12:49:00.544Z,17.85
2022-11-15T12:52:09.434Z,16.55
2022-11-15T12:55:02.950Z,17.10
2022-11-15T12:57:40.538Z,17.20
2022-11-15T13:00:41.141Z,17.13
2022-11-15T13:03:26.458Z,16.42
2022-11-15T13:06:05.065Z,17.35
2022-11-15T13:08:52.031Z,17.35
2022-11-15T13:12:00.754Z,17.27
2022-11-15T13:14:56.409Z,17.35
2022-11-15T13:17:33.802Z,16.45
2022-11-15T13:20:25.330Z,16.30
2022-11-15T13:23:00.372Z,16.08
2022-11-15T13:26:13.159Z,16.13
2022-11-15T13:28:46.260Z,15.85
2022-11-15T13:31:29.980Z,16.30
2022-11-15T13:34:03.092Z,15.75
2022-11-15T13:36:34.279Z,16.10
2022-11-15T13:39:04.788Z,16.23
2022-11-15T13:41:34.893Z,15.93
2022-11-15T13:44:04.773Z,15.90
2022-11-15T13:46:34.758Z,16.80
2022-11-15T13:49:05.859Z,15.60
2022-11-15T13:51:39.141Z,16.05
2022-11-15T13:54:17.158Z,16.15
2022-11-15T13:56:48.969Z,15.35
2022-11-15T13:59:25.978Z,16.17
2022-11-15T14:01:54.952Z,15.90
2022-11-15T14:04:26.325Z,15.90
2022-11-15T14:06:56.688Z,16.20
2022-11-15T14:09:37.851Z,16.35
2022-11-15T14:12:30.302Z,17.23
2022-11-15T14:14:59.258Z,14.77
2022-11-15T14:17:39.476Z,14.57
2022-11-15T14:20:32.984Z,15.18
2022-11-15T14:23:02.645Z,15.70
2022-11-15T14:25:33.016Z,15.45
2022-11-15T14:28:30.309Z,15.65
2022-11-15T14:31:00.258Z,15.75
2022-11-15T14:33:31.751Z,16.10
2022-11-15T14:36:06.416Z,15.60
2022-11-15T14:38:36.053Z,15.82
2022-11-15T14:41:04.646Z,16.92
2022-11-15T14:43:33.090Z,16.08
2022-11-15T14:46:01.641Z,16.25
2022-11-15T14:48:30.327Z,16.25
2022-11-15T14:51:00.854Z,15.60
2022-11-15T14:53:29.375Z,16.30
2022-11-15T14:55:57.885Z,16.00
2022-11-15T14:58:26.365Z,16.90
2022-11-15T15:00:54.876Z,16.13
2022-11-15T15:03:23.337Z,15.90
2022-11-15T15:05:51.772Z,16.25
2022-11-15T15:08:21.718Z,15.43
2022-11-15T15:10:50.540Z,15.82
2022-11-15T15:13:20.739Z,15.73
2022-11-15T15:15:49.647Z,16.70
2022-11-15T15:18:19.138Z,15.63
2022-11-15T15:20:55.808Z,16.48
2022-11-15T15:23:27.703Z,15.20
2022-11-15T15:25:56.170Z,16.00
2022-11-15T15:28:27.581Z,15.50
2022-11-15T15:30:58.606Z,16.20
2022-11-15T15:33:27.127Z,16.05
2022-11-15T15:35:55.566Z,16.77
2022-11-15T15:38:29.146Z,16.27
2022-11-15T15:40:57.837Z,16.23
2022-11-15T15:43:26.375Z,15.75
2022-11-15T15:45:54.798Z,16.45
2022-11-15T15:48:23.355Z,16.45
2022-11-15T15:50:52.134Z,17.02
2022-11-15T15:53:20.625Z,16.17
2022-11-15T15:55:50.869Z,16.27
2022-11-15T15:58:19.408Z,16.55
2022-11-15T16:00:47.950Z,18.05
2022-11-15T16:03:16.623Z,17.65
2022-11-15T16:05:45.108Z,16.23
2022-11-15T16:08:19.799Z,16.83
2022-11-15T16:10:48.448Z,16.77
2022-11-15T16:13:18.549Z,16.27
2022-11-15T16:15:54.443Z,17.15
2022-11-15T16:18:22.917Z,16.35
2022-11-15T16:20:53.167Z,17.85
2022-11-15T16:23:24.614Z,16.83
2022-11-15T16:25:54.183Z,17.38
2022-11-15T16:28:25.782Z,16.15
2022-11-15T16:31:02.640Z,16.58
2022-11-15T16:33:31.373Z,16.23
2022-11-15T16:36:00.171Z,16.40
2022-11-15T16:38:28.630Z,17.42
2022-11-15T16:40:58.257Z,16.38
2022-11-15T16:43:28.127Z,17.55
2022-11-15T16:45:56.576Z,16.25
2022-11-15T16:48:27.156Z,17.08
2022-11-15T16:50:57.362Z,17.00
2022-11-15T16:53:26.111Z,16.50
2022-11-15T16:55:54.814Z,16.98
2022-11-15T16:58:23.342Z,16.83
2022-11-15T17:00:54.480Z,15.85
2022-11-15T17:03:23.443Z,16.30
2022-11-15T17:05:52.186Z,17.13
2022-11-15T17:08:29.471Z,16.90
2022-11-15T17:10:57.964Z,17.40
2022-11-15T17:13:45.313Z,18.75
2022-11-15T17:16:16.499Z,17.90
2022-11-15T17:18:46.168Z,38.17
2022-11-15T17:21:33.920Z,86.57
2022-11-15T17:24:02.455Z,65.97
2022-11-15T17:26:33.987Z,49.33
2022-11-15T17:29:07.836Z,53.78
2022-11-15T17:31:38.042Z,64.50
2022-11-15T17:34:07.289Z,52.75
2022-11-15T17:36:36.022Z,56.33
2022-11-15T17:39:04.769Z,56.25
2022-11-15T17:41:33.237Z,50.85
2022-11-15T17:44:20.182Z,56.08
2022-11-15T17:46:50.049Z,58.47
2022-11-15T17:49:18.492Z,59.50
2022-11-15T17:51:50.353Z,54.80
2022-11-15T17:54:18.904Z,70.85
2022-11-15T17:57:05.618Z,59.53
2022-11-15T17:59:34.061Z,59.33
2022-11-15T18:02:03.941Z,51.03
2022-11-15T18:04:32.380Z,50.97
2022-11-15T18:07:00.900Z,49.40
2022-11-15T18:09:29.905Z,47.95
2022-11-15T18:11:58.812Z,44.58
2022-11-15T18:14:46.090Z,44.72
2022-11-15T18:17:16.005Z,41.38
2022-11-15T18:19:44.478Z,40.65
2022-11-15T18:22:12.996Z,40.08
2022-11-15T18:24:43.125Z,40.00
2022-11-15T18:27:11.612Z,37.53
2022-11-15T18:29:40.209Z,38.75
2022-11-15T18:32:28.385Z,35.38
2022-11-15T18:34:57.030Z,36.30
2022-11-15T18:37:25.553Z,36.60
2022-11-15T18:39:54.282Z,35.65
2022-11-15T18:42:22.832Z,35.30
2022-11-15T18:44:51.525Z,34.90
2022-11-15T18:47:20.042Z,35.10
2022-11-15T18:49:50.760Z,33.65
2022-11-15T18:52:38.020Z,33.67
2022-11-15T18:55:07.607Z,33.85
2022-11-15T18:57:54.469Z,32.75
2022-11-15T19:00:41.459Z,32.08
2022-11-15T19:03:10.084Z,31.85
2022-11-15T19:05:40.047Z,30.75
2022-11-15T19:08:08.520Z,30.70
2022-11-15T19:10:37.068Z,30.52
2022-11-15T19:13:08.255Z,30.05
2022-11-15T19:15:36.913Z,31.67
2022-11-15T19:18:23.783Z,30.60
2022-11-15T19:20:53.952Z,30.40
2022-11-15T19:23:22.674Z,29.52
2022-11-15T19:25:58.238Z,27.98
2022-11-15T19:28:45.500Z,28.70
2022-11-15T19:31:15.132Z,29.23
2022-11-15T19:33:44.814Z,27.75
2022-11-15T19:36:17.335Z,28.30
2022-11-15T19:38:46.393Z,27.73
2022-11-15T19:41:19.266Z,28.27
2022-11-15T19:43:48.976Z,26.65
2022-11-15T19:46:17.843Z,27.85
2022-11-15T19:49:05.271Z,27.35
2022-11-15T19:51:35.148Z,27.55
2022-11-15T19:54:06.818Z,25.80
2022-11-15T19:56:35.828Z,30.67
2022-11-15T19:59:05.031Z,30.27
2022-11-15T20:01:36.289Z,30.33
2022-11-15T20:04:05.277Z,28.08
2022-11-15T20:06:37.303Z,31.17
2022-11-15T20:09:05.902Z,28.73
2022-11-15T20:11:38.042Z,29.92
2022-11-15T20:14:08.996Z,26.42
2022-11-15T20:16:56.142Z,34.28
2022-11-15T20:19:24.709Z,37.00
2022-11-15T20:21:54.604Z,35.63
2022-11-15T20:24:23.732Z,35.28
2022-11-15T20:26:52.218Z,28.10
2022-11-15T20:29:20.663Z,28.83
2022-11-15T20:31:49.224Z,29.15
2022-11-15T20:34:17.738Z,27.85
2022-11-15T20:36:46.348Z,28.35
2022-11-15T20:39:16.151Z,27.98
2022-11-15T20:41:44.614Z,27.08
2022-11-15T20:44:13.120Z,26.55
2022-11-15T20:46:41.705Z,27.17
2022-11-15T20:49:10.240Z,27.20
2022-11-15T20:51:38.766Z,26.88
2022-11-15T20:54:07.577Z,27.40
2022-11-15T20:56:37.385Z,28.35
2022-11-15T20:59:05.906Z,26.65
2022-11-15T21:01:34.472Z,27.33
2022-11-15T21:04:03.299Z,27.00
2022-11-15T21:06:32.046Z,28.73
2022-11-15T21:09:18.385Z,27.25
2022-11-15T21:12:05.929Z,28.55
2022-11-15T21:14:34.464Z,27.25
2022-11-15T21:17:03.066Z,24.73
2022-11-15T21:19:36.676Z,27.00
2022-11-15T21:22:06.998Z,25.45
2022-11-15T21:24:37.123Z,26.27
2022-11-15T21:27:06.963Z,26.25
2022-11-15T21:29:38.646Z,24.67
2022-11-15T21:32:07.533Z,25.08
2022-11-15T21:34:36.058Z,25.77
2022-11-15T21:37:04.738Z,24.50
2022-11-15T21:39:33.210Z,24.23
2022-11-15T21:42:01.653Z,24.88
2022-11-15T21:44:31.762Z,25.52
2022-11-15T21:47:00.330Z,23.20
2022-11-15T21:49:28.812Z,24.30
2022-11-15T21:51:57.297Z,23.40
2022-11-15T21:54:25.778Z,24.50
2022-11-15T21:56:54.271Z,24.38
2022-11-15T21:59:22.888Z,24.25
2022-11-15T22:02:10.535Z,23.92
2022-11-15T22:04:39.027Z,23.75
2022-11-15T22:07:07.582Z,23.58
2022-11-15T22:09:36.445Z,24.83
2022-11-15T22:12:05.248Z,24.70
2022-11-15T22:14:33.722Z,26.58
2022-11-15T22:17:03.785Z,24.60
2022-11-15T22:19:32.359Z,24.05
2022-11-15T22:22:00.884Z,23.95
2022-11-15T22:24:29.876Z,25.25
2022-11-15T22:26:58.348Z,23.45
2022-11-15T22:29:27.094Z,24.13
2022-11-15T22:31:55.629Z,24.08
2022-11-15T22:34:25.674Z,24.67
2022-11-15T22:37:19.024Z,24.08
2022-11-15T22:39:42.583Z,24.42
2022-11-15T22:42:11.120Z,24.95
2022-11-15T22:44:39.638Z,25.40
2022-11-15T22:47:08.205Z,24.77
2022-11-15T22:49:38.089Z,23.58
2022-11-15T22:52:06.949Z,25.77
2022-11-15T22:54:35.438Z,24.02
2022-11-15T22:57:04.254Z,25.55
2022-11-15T22:59:32.806Z,24.08
2022-11-15T23:02:01.272Z,23.75
2022-11-15T23:04:34.671Z,23.85
2022-11-15T23:07:04.770Z,25.00
2022-11-15T23:09:33.455Z,24.13
2022-11-15T23:12:21.413Z,23.90
2022-11-15T23:14:49.888Z,23.67
2022-11-15T23:17:18.432Z,23.98
2022-11-15T23:19:47.140Z,24.67
2022-11-15T23:22:34.728Z,25.10
2022-11-15T23:25:03.265Z,23.23
2022-11-15T23:27:31.803Z,24.02
2022-11-15T23:30:17.845Z,23.25
2022-11-15T23:33:03.735Z,23.55
2022-11-15T23:35:32.264Z,24.17
2022-11-15T23:38:02.206Z,23.13
2022-11-15T23:40:30.743Z,24.40
2022-11-15T23:42:59.722Z,24.52
2022-11-15T23:45:29.599Z,24.00
2022-11-15T23:48:01.416Z,24.33
2022-11-15T23:50:32.745Z,23.20
2022-11-15T23:53:02.683Z,22.73
2022-11-15T23:55:31.279Z,22.70
2022-11-15T23:58:00.635Z,22.88
